Etusivu
METAR-TAF:

METAR-TAF

Lentoasemat :

Touggourt, Algeria

Leveyspiiri: 33-07N, Pituuspiiri: 006-08E, korkeus merenpinnasta: 85 m

Tämänhetkinen sää

Tämä raportti tehtiin 58 minuuttia sitten, kello 08.00 UTC
Tuuli 7 kn idästä
Lämpötila 26°C
Kosteus 30%
Ilmanpaine 1007 hPa
Näkyvyys: 7000 m

METAR: DAUK 240800Z 09007KT 7000 NSC 26/07 Q1007

Aika: 09:58 (08:58 UTC)

Sääennuste

Tämä raportti tehtiin 58 minuuttia sitten, kello 08.00 UTC
Ennuste voimassa 24. päivästä klo 09 UTC - 24. päivään klo 18 UTC
Tuuli 14 kn idästä
Näkyvyys: 8000 m
Todennäköisyys 40% :
Ajoittain
24. päivästä klo 09 UTC - 24. päivään klo 11 UTC
Näkyvyys: 3000 m
usvaa
Tulossa
24. päivästä klo 11 UTC - 24. päivään klo 14 UTC
Tuuli 12 kn lännestä/lounaasta

TAF: DAUK 240800Z 2409/2418 10014KT 8000 NSC PROB40 TEMPO 2409/2411 3000 HZ BECMG 2411/2414 24012KT

Säähavainnot ja -ennusteet yli 4000 lentoasemalta (METAR- ja TAF-raportit).

Käytössä olevat sääasemat on merkitty karttaan keltaisilla ja punaisilla pisteillä.

Aseta hiiri pisteen päälle nähdäksesi sääaseman nimen.

Klikkaa sitten nähdäksesi säähavainnot ja -ennusteet.

Kartan vaihtaminen: klikkaa mustalla rastilla varustettuja vihreitä pisteitä, niin voit zoomata sisään; viivalla varustettua vihreää pistettä, niin voit zoomata ulos tai vihreitä nuolia, niin pääset viereisille kartoille.


METAR-TAF: